createdAt,value
2022-08-29T00:02:05.536Z,3.25
2022-08-29T00:04:49.529Z,3.08
2022-08-29T00:07:35.427Z,3.58
2022-08-29T00:10:19.661Z,2.95
2022-08-29T00:13:06.723Z,3.50
2022-08-29T00:15:50.634Z,3.20
2022-08-29T00:18:34.901Z,4.75
2022-08-29T00:21:18.778Z,3.40
2022-08-29T00:24:04.617Z,3.80
2022-08-29T00:26:48.586Z,3.17
2022-08-29T00:29:32.399Z,4.22
2022-08-29T00:32:16.299Z,4.15
2022-08-29T00:35:00.153Z,3.80
2022-08-29T00:37:45.116Z,3.58
2022-08-29T00:40:33.851Z,3.75
2022-08-29T00:43:19.608Z,3.05
2022-08-29T00:46:13.169Z,3.13
2022-08-29T00:49:00.334Z,3.20
2022-08-29T00:51:44.442Z,3.40
2022-08-29T00:54:28.497Z,3.80
2022-08-29T00:57:14.380Z,4.18
2022-08-29T00:59:58.939Z,3.35
2022-08-29T01:02:43.490Z,3.08
2022-08-29T01:05:27.785Z,3.40
2022-08-29T01:08:11.819Z,3.00
2022-08-29T01:11:13.626Z,3.17
2022-08-29T01:14:01.330Z,3.97
2022-08-29T01:16:47.106Z,4.85
2022-08-29T01:19:44.194Z,3.85
2022-08-29T01:22:40.993Z,3.78
2022-08-29T01:25:28.691Z,2.97
2022-08-29T01:28:17.250Z,2.85
2022-08-29T01:31:06.459Z,3.03
2022-08-29T01:33:54.459Z,3.80
2022-08-29T01:36:42.946Z,3.17
2022-08-29T01:39:29.264Z,3.42
2022-08-29T01:42:19.126Z,3.80
2022-08-29T01:45:03.305Z,3.22
2022-08-29T01:47:47.318Z,2.92
2022-08-29T01:50:32.983Z,2.95
2022-08-29T01:53:17.626Z,2.97
2022-08-29T01:56:09.484Z,3.78
2022-08-29T01:58:56.445Z,3.45
2022-08-29T02:01:43.348Z,2.97
2022-08-29T02:04:27.502Z,3.40
2022-08-29T02:07:12.826Z,3.53
2022-08-29T02:09:56.912Z,4.25
2022-08-29T02:12:41.013Z,3.83
2022-08-29T02:15:26.349Z,3.88
2022-08-29T02:18:10.349Z,3.83
2022-08-29T02:20:54.184Z,3.88
2022-08-29T02:23:39.848Z,4.40
2022-08-29T02:26:24.053Z,4.03
2022-08-29T02:29:09.734Z,3.42
2022-08-29T02:31:55.403Z,3.50
2022-08-29T02:34:40.068Z,3.85
2022-08-29T02:37:27.976Z,3.10
2022-08-29T02:40:12.300Z,4.18
2022-08-29T02:42:57.028Z,5.45
2022-08-29T02:45:43.537Z,4.13
2022-08-29T02:48:28.957Z,3.97
2022-08-29T02:51:19.438Z,3.63
2022-08-29T02:54:03.911Z,5.25
2022-08-29T02:56:47.742Z,3.95
2022-08-29T02:59:31.595Z,4.40
2022-08-29T03:02:15.648Z,4.10
2022-08-29T03:05:01.144Z,4.18
2022-08-29T03:07:50.805Z,4.20
2022-08-29T03:10:36.712Z,4.47
2022-08-29T03:13:20.547Z,3.95
2022-08-29T03:16:05.933Z,4.57
2022-08-29T03:18:50.153Z,4.43
2022-08-29T03:21:35.500Z,4.82
2022-08-29T03:24:26.356Z,4.65
2022-08-29T03:27:11.097Z,4.03
2022-08-29T03:29:54.925Z,4.18
2022-08-29T03:32:39.172Z,3.17
2022-08-29T03:35:23.365Z,5.07
2022-08-29T03:38:08.847Z,4.32
2022-08-29T03:40:53.521Z,4.85
2022-08-29T03:43:42.239Z,3.45
2022-08-29T03:46:27.178Z,4.28
2022-08-29T03:49:11.331Z,4.15
2022-08-29T03:51:55.600Z,5.40
2022-08-29T03:54:40.780Z,4.05
2022-08-29T03:57:25.029Z,4.53
2022-08-29T04:00:12.326Z,3.47
2022-08-29T04:02:58.358Z,4.18
2022-08-29T04:05:42.983Z,4.63
2022-08-29T04:08:26.922Z,4.25
2022-08-29T04:11:13.706Z,4.75
2022-08-29T04:13:57.522Z,3.67
2022-08-29T04:16:41.445Z,3.75
2022-08-29T04:19:25.300Z,4.72
2022-08-29T04:22:09.505Z,4.25
2022-08-29T04:24:53.475Z,3.53
2022-08-29T04:27:39.284Z,4.55
2022-08-29T04:30:24.978Z,4.40
2022-08-29T04:33:08.932Z,4.45
2022-08-29T04:36:00.219Z,4.57
2022-08-29T04:38:44.251Z,4.95
2022-08-29T04:41:28.171Z,4.32
2022-08-29T04:44:14.429Z,4.57
2022-08-29T04:46:58.414Z,4.90
2022-08-29T04:49:42.537Z,4.32
2022-08-29T04:52:28.211Z,4.10
2022-08-29T04:55:13.154Z,4.45
2022-08-29T04:57:57.542Z,4.65
2022-08-29T05:00:42.753Z,4.82
2022-08-29T05:03:26.767Z,4.93
2022-08-29T05:06:14.350Z,4.40
2022-08-29T05:08:59.047Z,4.63
2022-08-29T05:11:43.942Z,4.38
2022-08-29T05:14:27.984Z,4.50
2022-08-29T05:17:14.410Z,4.28
2022-08-29T05:19:58.614Z,4.40
2022-08-29T05:22:43.463Z,4.15
2022-08-29T05:25:27.600Z,4.00
2022-08-29T05:28:12.324Z,3.63
2022-08-29T05:30:56.557Z,4.50
2022-08-29T05:33:41.915Z,4.68
2022-08-29T05:36:25.953Z,4.43
2022-08-29T05:39:09.855Z,4.68
2022-08-29T05:41:58.531Z,3.72
2022-08-29T05:44:42.328Z,4.03
2022-08-29T05:47:26.629Z,4.78
2022-08-29T05:50:13.764Z,4.80
2022-08-29T05:52:57.733Z,5.25
2022-08-29T05:55:42.081Z,5.38
2022-08-29T05:58:26.587Z,5.63
2022-08-29T06:01:10.381Z,4.85
2022-08-29T06:03:55.118Z,5.82
2022-08-29T06:06:42.508Z,5.38
2022-08-29T06:09:26.548Z,4.60
2022-08-29T06:12:12.063Z,5.70
2022-08-29T06:14:56.072Z,5.57
2022-08-29T06:17:40.282Z,5.13
2022-08-29T06:20:24.533Z,4.95
2022-08-29T06:23:10.153Z,4.30
2022-08-29T06:25:57.354Z,4.68
2022-08-29T06:28:46.061Z,5.40
2022-08-29T06:31:30.237Z,5.75
2022-08-29T06:34:14.456Z,5.30
2022-08-29T06:36:59.633Z,5.47
2022-08-29T06:39:45.211Z,5.88
2022-08-29T06:42:29.274Z,6.18
2022-08-29T06:45:13.301Z,6.47
2022-08-29T06:47:57.353Z,6.32
2022-08-29T06:50:45.543Z,6.72
2022-08-29T06:53:32.313Z,6.35
2022-08-29T06:56:19.163Z,6.78
2022-08-29T06:59:03.262Z,7.35
2022-08-29T07:01:48.516Z,9.35
2022-08-29T07:04:34.115Z,8.65
2022-08-29T07:07:19.289Z,7.35
2022-08-29T07:10:03.451Z,8.32
2022-08-29T07:12:49.075Z,7.75
2022-08-29T07:15:33.119Z,113.45
2022-08-29T07:18:17.335Z,108.60
2022-08-29T07:21:01.404Z,147.43
2022-08-29T07:23:46.284Z,11.98
2022-08-29T07:26:33.253Z,10.88
2022-08-29T07:29:21.517Z,10.65
2022-08-29T07:32:05.586Z,10.10
2022-08-29T07:34:54.058Z,9.60
2022-08-29T07:37:39.844Z,9.60
2022-08-29T07:40:23.962Z,9.98
2022-08-29T07:43:07.866Z,9.98
2022-08-29T07:45:53.194Z,9.52
2022-08-29T07:48:37.519Z,10.57
2022-08-29T07:51:24.106Z,9.35
2022-08-29T07:54:07.995Z,10.02
2022-08-29T07:56:53.738Z,8.90
2022-08-29T07:59:37.650Z,10.05
2022-08-29T08:02:23.122Z,9.80
2022-08-29T08:05:08.003Z,9.63
2022-08-29T08:07:55.678Z,9.50
2022-08-29T08:10:40.501Z,9.45
2022-08-29T08:13:28.127Z,7.32
2022-08-29T08:16:14.524Z,7.95
2022-08-29T08:19:00.118Z,8.20
2022-08-29T08:21:49.909Z,7.88
2022-08-29T08:24:34.143Z,6.93
2022-08-29T08:27:17.986Z,7.72
2022-08-29T08:30:01.861Z,7.68
2022-08-29T08:32:49.558Z,6.63
2022-08-29T08:35:42.001Z,7.30
2022-08-29T08:38:26.186Z,7.45
2022-08-29T08:41:26.426Z,6.65
2022-08-29T08:44:30.001Z,6.65
2022-08-29T08:47:26.959Z,7.55
2022-08-29T08:50:18.486Z,7.10
2022-08-29T08:53:11.978Z,6.68
2022-08-29T08:56:00.011Z,6.70
2022-08-29T08:58:52.291Z,6.32
2022-08-29T09:01:40.888Z,7.10
2022-08-29T09:04:55.079Z,6.30
2022-08-29T09:07:51.229Z,6.15
2022-08-29T09:10:44.683Z,7.20
2022-08-29T09:13:38.660Z,5.78
2022-08-29T09:16:27.911Z,5.68
2022-08-29T09:19:17.261Z,6.18
2022-08-29T09:22:10.744Z,5.72
2022-08-29T09:24:59.166Z,5.80
2022-08-29T09:27:44.954Z,6.57
2022-08-29T09:30:31.280Z,5.88
2022-08-29T09:33:19.111Z,6.32
2022-08-29T09:36:04.752Z,6.88
2022-08-29T09:38:48.609Z,6.15
2022-08-29T09:41:32.440Z,5.90
2022-08-29T09:44:23.934Z,5.35
2022-08-29T09:47:12.563Z,5.63
2022-08-29T09:50:08.276Z,5.28
2022-08-29T09:52:53.905Z,5.65
2022-08-29T09:55:42.550Z,5.97
2022-08-29T09:58:34.243Z,5.47
2022-08-29T10:01:27.605Z,6.10
2022-08-29T10:04:13.477Z,6.15
2022-08-29T10:07:10.704Z,5.63
2022-08-29T10:10:01.528Z,7.00
2022-08-29T10:12:53.064Z,5.95
2022-08-29T10:15:51.371Z,6.45
2022-08-29T10:18:46.023Z,6.30
2022-08-29T10:21:37.233Z,6.03
2022-08-29T10:24:31.390Z,6.28
2022-08-29T10:27:28.679Z,6.28
2022-08-29T10:30:16.180Z,5.97
2022-08-29T10:33:19.634Z,6.45
2022-08-29T10:36:13.396Z,5.95
2022-08-29T10:39:04.168Z,6.35
2022-08-29T10:41:57.352Z,5.80
2022-08-29T10:44:53.754Z,5.40
2022-08-29T10:47:41.928Z,6.70
2022-08-29T10:50:44.241Z,6.55
2022-08-29T10:53:38.289Z,5.20
2022-08-29T10:56:25.900Z,6.15
2022-08-29T10:59:23.154Z,6.82
2022-08-29T11:02:12.301Z,6.20
2022-08-29T11:05:00.715Z,7.20
2022-08-29T11:07:50.604Z,6.15
2022-08-29T11:10:41.486Z,6.72
2022-08-29T11:13:30.523Z,5.57
2022-08-29T11:16:19.703Z,6.25
2022-08-29T11:19:10.484Z,6.22
2022-08-29T11:22:00.237Z,5.75
2022-08-29T11:24:47.333Z,5.13
2022-08-29T11:27:40.225Z,5.85
2022-08-29T11:30:29.552Z,5.35
2022-08-29T11:33:23.990Z,5.03
2022-08-29T11:36:29.282Z,5.38
2022-08-29T11:39:38.361Z,5.55
2022-08-29T11:45:37.552Z,6.03
2022-08-29T11:48:34.740Z,5.93
2022-08-29T11:51:31.975Z,4.63
2022-08-29T11:54:52.204Z,4.35
2022-08-29T11:57:58.306Z,5.15
2022-08-29T12:00:51.436Z,5.70
2022-08-29T12:03:57.588Z,6.20
2022-08-29T12:07:01.245Z,5.57
2022-08-29T12:09:51.614Z,4.82
2022-08-29T12:12:47.523Z,5.57
2022-08-29T12:15:54.806Z,4.80
2022-08-29T12:18:48.830Z,5.60
2022-08-29T12:21:48.875Z,5.10
2022-08-29T12:24:41.853Z,5.32
2022-08-29T12:28:01.310Z,4.57
2022-08-29T12:30:48.898Z,5.50
2022-08-29T12:33:47.357Z,5.70
2022-08-29T12:36:51.951Z,5.35
2022-08-29T12:40:01.744Z,5.15
2022-08-29T12:43:03.397Z,4.60
2022-08-29T12:45:50.483Z,5.82
2022-08-29T12:48:42.429Z,4.68
2022-08-29T12:51:34.830Z,5.13
2022-08-29T12:54:32.628Z,5.13
2022-08-29T12:57:20.249Z,5.20
2022-08-29T13:00:12.644Z,5.00
2022-08-29T13:03:00.797Z,7.63
2022-08-29T13:05:46.844Z,6.10
2022-08-29T13:08:33.369Z,5.25
2022-08-29T13:11:21.795Z,5.90
2022-08-29T13:14:08.933Z,5.65
2022-08-29T13:16:53.005Z,5.93
2022-08-29T13:19:37.016Z,4.53
2022-08-29T13:22:22.336Z,4.80
2022-08-29T13:25:07.175Z,4.60
2022-08-29T13:28:01.574Z,4.63
2022-08-29T13:30:48.898Z,4.07
2022-08-29T13:33:35.022Z,4.47
2022-08-29T13:36:38.288Z,4.30
2022-08-29T13:39:27.431Z,4.80
2022-08-29T13:42:16.729Z,4.95
2022-08-29T13:45:15.303Z,5.38
2022-08-29T13:48:20.458Z,5.05
2022-08-29T13:51:06.706Z,4.63
2022-08-29T13:53:53.209Z,5.20
2022-08-29T13:56:38.669Z,4.65
2022-08-29T13:59:25.989Z,4.38
2022-08-29T14:02:11.319Z,3.58
2022-08-29T14:04:55.556Z,4.90
2022-08-29T14:07:39.537Z,5.80
2022-08-29T14:10:23.503Z,4.40
2022-08-29T14:13:08.869Z,4.13
2022-08-29T14:15:52.915Z,5.13
2022-08-29T14:18:36.897Z,5.35
2022-08-29T14:21:20.920Z,4.32
2022-08-29T14:24:05.353Z,4.20
2022-08-29T14:26:49.453Z,4.82
2022-08-29T14:29:45.158Z,4.63
2022-08-29T14:32:29.252Z,4.05
2022-08-29T14:35:26.182Z,4.10
2022-08-29T14:38:11.869Z,4.50
2022-08-29T14:40:56.086Z,4.78
2022-08-29T14:43:40.835Z,4.95
2022-08-29T14:46:26.922Z,4.95
2022-08-29T14:49:11.275Z,4.88
2022-08-29T14:51:55.253Z,5.28
2022-08-29T14:54:39.229Z,4.38
2022-08-29T14:57:23.300Z,4.82
2022-08-29T15:00:09.847Z,4.60
2022-08-29T15:02:55.752Z,4.57
2022-08-29T15:05:39.940Z,4.45
2022-08-29T15:08:24.040Z,4.07
2022-08-29T15:11:08.338Z,4.80
2022-08-29T15:13:52.465Z,4.97
2022-08-29T15:16:36.573Z,4.40
2022-08-29T15:20:18.125Z,4.55
2022-08-29T15:22:27.612Z,3.97
2022-08-29T15:25:11.600Z,4.75
2022-08-29T15:27:55.973Z,4.45
2022-08-29T15:30:40.490Z,4.30
2022-08-29T15:33:25.333Z,4.47
2022-08-29T15:36:11.262Z,4.20
2022-08-29T15:38:55.441Z,4.93
2022-08-29T15:41:39.582Z,4.63
2022-08-29T15:44:23.678Z,4.63
2022-08-29T15:47:10.537Z,4.13
2022-08-29T15:49:55.280Z,4.75
2022-08-29T15:52:40.750Z,4.15
2022-08-29T15:55:24.799Z,4.32
2022-08-29T15:58:08.768Z,4.53
2022-08-29T16:00:53.098Z,7.70
2022-08-29T16:03:37.360Z,5.38
2022-08-29T16:06:21.217Z,9.52
2022-08-29T16:09:15.697Z,5.20
2022-08-29T16:11:59.923Z,6.40
2022-08-29T16:14:58.934Z,7.45
2022-08-29T16:17:43.345Z,7.18
2022-08-29T16:20:27.229Z,6.18
2022-08-29T16:23:11.514Z,5.22
2022-08-29T16:25:57.069Z,6.80
2022-08-29T16:28:41.391Z,5.32
2022-08-29T16:31:25.691Z,8.05
2022-08-29T16:34:09.758Z,14.20
2022-08-29T16:36:56.862Z,6.50
2022-08-29T16:39:40.802Z,5.38
2022-08-29T16:42:30.312Z,5.80
2022-08-29T16:45:16.247Z,8.75
2022-08-29T16:48:00.882Z,6.53
2022-08-29T16:50:44.999Z,4.75
2022-08-29T16:53:28.859Z,5.00
2022-08-29T16:56:15.764Z,5.53
2022-08-29T16:59:01.842Z,5.75
2022-08-29T17:01:48.654Z,5.25
2022-08-29T17:04:32.850Z,6.28
2022-08-29T17:07:17.292Z,6.70
2022-08-29T17:10:02.259Z,6.53
2022-08-29T17:12:46.147Z,6.20
2022-08-29T17:15:30.177Z,7.07
2022-08-29T17:18:14.062Z,6.20
2022-08-29T17:20:59.915Z,5.85
2022-08-29T17:23:44.889Z,6.15
2022-08-29T17:26:29.351Z,7.95
2022-08-29T17:29:14.008Z,5.95
2022-08-29T17:31:59.256Z,6.65
2022-08-29T17:34:44.162Z,5.88
2022-08-29T17:37:29.510Z,5.85
2022-08-29T17:40:20.482Z,4.95
2022-08-29T17:43:05.878Z,5.32
2022-08-29T17:45:49.742Z,4.93
2022-08-29T17:48:35.088Z,6.45
2022-08-29T17:51:19.007Z,6.88
2022-08-29T17:54:04.480Z,6.68
2022-08-29T17:56:51.035Z,5.57
2022-08-29T17:59:36.908Z,5.10
2022-08-29T18:02:20.868Z,6.22
2022-08-29T18:05:10.241Z,4.90
2022-08-29T18:07:54.195Z,5.00
2022-08-29T18:10:39.869Z,4.82
2022-08-29T18:13:24.421Z,5.07
2022-08-29T18:16:11.567Z,4.90
2022-08-29T18:18:56.254Z,4.47
2022-08-29T18:21:43.312Z,5.15
2022-08-29T18:24:27.317Z,3.88
2022-08-29T18:27:11.364Z,4.18
2022-08-29T18:29:57.781Z,4.53
2022-08-29T18:32:42.572Z,5.03
2022-08-29T18:35:26.642Z,5.90
2022-08-29T18:38:11.901Z,7.43
2022-08-29T18:40:56.086Z,7.40
2022-08-29T18:43:39.888Z,7.25
2022-08-29T18:46:23.825Z,6.18
2022-08-29T18:49:08.253Z,5.35
2022-08-29T18:51:55.573Z,4.93
2022-08-29T18:54:41.421Z,5.18
2022-08-29T18:57:25.301Z,4.93
2022-08-29T19:00:11.256Z,5.05
2022-08-29T19:02:56.452Z,5.25
2022-08-29T19:05:43.746Z,4.82
2022-08-29T19:08:27.664Z,4.80
2022-08-29T19:11:14.023Z,4.47
2022-08-29T19:13:58.054Z,3.92
2022-08-29T19:16:42.364Z,3.78
2022-08-29T19:19:26.318Z,4.60
2022-08-29T19:22:11.712Z,4.72
2022-08-29T19:24:55.719Z,4.35
2022-08-29T19:27:44.068Z,4.68
2022-08-29T19:30:28.536Z,4.63
2022-08-29T19:33:15.346Z,5.20
2022-08-29T19:35:59.410Z,4.10
2022-08-29T19:38:43.203Z,4.25
2022-08-29T19:41:27.562Z,4.28
2022-08-29T19:44:12.789Z,4.38
2022-08-29T19:46:58.339Z,3.72
2022-08-29T19:49:45.377Z,4.47
2022-08-29T19:52:29.561Z,4.30
2022-08-29T19:55:17.763Z,3.97
2022-08-29T19:58:01.798Z,4.30
2022-08-29T20:00:52.134Z,4.38
2022-08-29T20:03:39.551Z,4.75
2022-08-29T20:06:24.388Z,4.13
2022-08-29T20:09:08.788Z,3.65
2022-08-29T20:11:52.661Z,4.40
2022-08-29T20:14:37.213Z,5.07
2022-08-29T20:17:22.560Z,4.35
2022-08-29T20:20:11.813Z,4.32
2022-08-29T20:22:55.930Z,3.80
2022-08-29T20:25:39.840Z,4.30
2022-08-29T20:28:23.749Z,3.97
2022-08-29T20:31:08.002Z,5.25
2022-08-29T20:33:53.513Z,3.97
2022-08-29T20:36:54.843Z,4.25
2022-08-29T20:39:39.518Z,4.78
2022-08-29T20:42:25.432Z,4.50
2022-08-29T20:45:10.322Z,4.38
2022-08-29T20:47:54.294Z,4.50
2022-08-29T20:50:39.866Z,4.15
2022-08-29T20:53:32.013Z,3.78
2022-08-29T20:56:17.003Z,3.60
2022-08-29T20:59:00.874Z,4.85
2022-08-29T21:01:45.235Z,4.22
2022-08-29T21:04:46.848Z,5.03
2022-08-29T21:07:32.028Z,3.80
2022-08-29T21:10:15.781Z,3.65
2022-08-29T21:13:00.121Z,5.13
2022-08-29T21:15:44.545Z,4.55
2022-08-29T21:18:28.471Z,4.88
2022-08-29T21:21:13.536Z,4.55
2022-08-29T21:23:58.819Z,4.72
2022-08-29T21:26:42.669Z,4.93
2022-08-29T21:29:26.519Z,4.05
2022-08-29T21:32:10.417Z,4.72
2022-08-29T21:34:54.305Z,4.13
2022-08-29T21:37:39.292Z,4.53
2022-08-29T21:40:26.151Z,4.43
2022-08-29T21:43:09.979Z,5.10
2022-08-29T21:45:57.298Z,4.70
2022-08-29T21:48:41.131Z,4.38
2022-08-29T21:51:25.460Z,4.93
2022-08-29T21:54:13.389Z,5.18
2022-08-29T21:56:58.989Z,4.55
2022-08-29T21:59:42.899Z,4.25
2022-08-29T22:02:27.663Z,5.03
2022-08-29T22:05:11.845Z,4.55
2022-08-29T22:07:55.929Z,5.00
2022-08-29T22:10:42.680Z,4.82
2022-08-29T22:13:28.505Z,4.47
2022-08-29T22:16:30.230Z,5.10
2022-08-29T22:19:16.302Z,5.53
2022-08-29T22:22:00.863Z,5.38
2022-08-29T22:24:44.782Z,5.00
2022-08-29T22:27:28.747Z,5.15
2022-08-29T22:30:15.754Z,4.82
2022-08-29T22:33:00.146Z,5.55
2022-08-29T22:35:45.234Z,5.10
2022-08-29T22:38:30.099Z,6.03
2022-08-29T22:41:16.027Z,6.20
2022-08-29T22:44:42.462Z,4.97
2022-08-29T22:47:08.167Z,6.07
2022-08-29T22:49:52.018Z,4.80
2022-08-29T22:52:36.197Z,4.80
2022-08-29T22:58:04.911Z,5.20
2022-08-29T23:00:48.928Z,5.10
2022-08-29T23:03:34.207Z,5.60
2022-08-29T23:06:17.992Z,5.15
2022-08-29T23:09:03.439Z,5.28
2022-08-29T23:11:48.015Z,5.75
2022-08-29T23:14:31.927Z,5.95
2022-08-29T23:17:17.356Z,5.43
2022-08-29T23:20:02.725Z,4.93
2022-08-29T23:22:48.799Z,5.57
2022-08-29T23:25:32.821Z,5.15
2022-08-29T23:28:16.845Z,5.78
2022-08-29T23:31:01.662Z,6.22
2022-08-29T23:33:45.750Z,4.45
2022-08-29T23:36:31.136Z,5.07
2022-08-29T23:39:15.072Z,5.22
2022-08-29T23:41:59.674Z,5.57
2022-08-29T23:44:43.637Z,6.40
2022-08-29T23:47:27.656Z,5.65
2022-08-29T23:50:14.322Z,4.93
2022-08-29T23:52:59.662Z,6.45
2022-08-29T23:55:44.026Z,5.05
2022-08-29T23:58:28.140Z,5.00
